Time;durP1;ratioP1;P1;durP2;ratioP2;P2;SDS_P1;SDS_P2;PMS_P1;PMS_P2;Temp;Humidity;BMP_temperature;BMP_pressure;BME280_temperature;BME280_humidity;BME280_pressure;Samples;Min_cycle;Max_cycle;Signal;HPM_P1;HPM_P2
2022/02/17 00:00:40;;;;;;;0.40;0.30;;;13.00;99.90;;;;;;5094448;28;20028;-64
2022/02/17 00:03:06;;;;;;;;;;;13.10;99.90;;;;;;5094659;28;20085;-64
2022/02/17 00:05:31;;;;;;;0.30;0.30;;;13.00;99.90;;;;;;5094220;28;19904;-64
2022/02/17 00:07:58;;;;;;;1.23;0.50;;;13.10;99.90;;;;;;5094138;28;20514;-64
2022/02/17 00:10:25;;;;;;;2.28;0.47;;;13.10;99.90;;;;;;5092825;28;20032;-64
2022/02/17 00:12:51;;;;;;;1.23;0.40;;;13.20;99.90;;;;;;5093850;28;20031;-64
2022/02/17 00:15:18;;;;;;;;;;;13.20;99.90;;;;;;5094527;28;20089;-64
2022/02/17 00:17:43;;;;;;;0.65;0.30;;;13.20;99.90;;;;;;5094773;28;20257;-64
2022/02/17 00:20:10;;;;;;;0.93;0.57;;;13.10;99.90;;;;;;5094295;28;20023;-64
2022/02/17 00:22:36;;;;;;;;;;;13.10;99.90;;;;;;5093887;28;20036;-64
2022/02/17 00:25:02;;;;;;;0.90;0.50;;;13.10;99.90;;;;;;5093765;28;19904;-64
2022/02/17 00:27:28;;;;;;;0.32;0.22;;;13.00;99.90;;;;;;5093818;28;20048;-64
2022/02/17 00:29:53;;;;;;;0.30;0.27;;;13.00;99.90;;;;;;5093940;28;20035;-64
2022/02/17 00:32:19;;;;;;;1.67;0.50;;;13.10;99.90;;;;;;5093798;28;20028;-64
2022/02/17 00:34:44;;;;;;;0.60;0.30;;;13.10;99.90;;;;;;5093704;28;20266;-65
2022/02/17 00:37:10;;;;;;;1.83;0.47;;;13.00;99.90;;;;;;5092527;28;20039;-65
2022/02/17 00:39:35;;;;;;;1.37;0.30;;;13.10;99.90;;;;;;5093485;28;20062;-65
2022/02/17 00:42:03;;;;;;;0.30;0.30;;;13.00;99.90;;;;;;5093429;28;20103;-64
2022/02/17 00:44:29;;;;;;;0.30;0.30;;;13.10;99.90;;;;;;5094040;28;20465;-66
2022/02/17 00:46:57;;;;;;;0.20;0.20;;;13.10;99.90;;;;;;5094443;28;20020;-65
2022/02/17 00:49:28;;;;;;;0.68;0.40;;;13.10;99.90;;;;;;5093860;28;20487;-64
2022/02/17 00:51:54;;;;;;;0.80;0.30;;;13.10;99.90;;;;;;5093639;28;20113;-65
2022/02/17 00:54:19;;;;;;;0.30;0.30;;;13.20;99.90;;;;;;5093402;28;20117;-65
2022/02/17 00:56:45;;;;;;;0.87;0.37;;;13.20;99.90;;;;;;5093452;28;20059;-64
2022/02/17 00:59:12;;;;;;;0.80;0.30;;;13.20;99.90;;;;;;5092253;28;20115;-64
2022/02/17 01:01:38;;;;;;;1.10;0.30;;;13.30;99.90;;;;;;5093529;28;20507;-64
2022/02/17 01:04:04;;;;;;;0.40;0.40;;;13.40;99.90;;;;;;5093472;28;20025;-65
2022/02/17 01:06:30;;;;;;;0.20;0.20;;;13.40;99.90;;;;;;5094206;28;20028;-65
2022/02/17 01:08:55;;;;;;;0.20;0.20;;;13.40;99.90;;;;;;5091873;28;20028;-65
2022/02/17 01:11:22;;;;;;;0.93;0.30;;;13.40;99.90;;;;;;5093534;28;20054;-65
2022/02/17 01:13:47;;;;;;;0.20;0.20;;;13.40;99.90;;;;;;5093133;28;20024;-65
2022/02/17 01:16:13;;;;;;;0.52;0.22;;;13.40;99.90;;;;;;5093831;28;20047;-65
2022/02/17 01:18:39;;;;;;;0.20;0.20;;;13.40;99.90;;;;;;5092975;28;20020;-64
2022/02/17 01:21:05;;;;;;;0.32;0.30;;;13.40;99.90;;;;;;5092988;28;20119;-64
2022/02/17 01:23:30;;;;;;;1.35;0.30;;;13.40;99.90;;;;;;5092967;28;20425;-64
2022/02/17 01:25:56;;;;;;;0.60;0.40;;;13.40;99.90;;;;;;5093049;28;20059;-65
2022/02/17 01:28:22;;;;;;;1.30;0.50;;;13.50;99.90;;;;;;5092967;28;20258;-65
2022/02/17 01:30:47;;;;;;;0.83;0.27;;;13.50;99.90;;;;;;5091727;28;20119;-65
2022/02/17 01:33:13;;;;;;;0.20;0.20;;;13.50;99.90;;;;;;5092936;28;20024;-65
2022/02/17 01:35:38;;;;;;;0.20;0.20;;;13.50;99.90;;;;;;5094851;28;20039;-65
2022/02/17 01:38:04;;;;;;;0.30;0.30;;;13.50;99.90;;;;;;5096767;28;20085;-65
2022/02/17 01:40:31;;;;;;;0.20;0.20;;;13.50;99.90;;;;;;5096883;28;20487;-64
2022/02/17 01:42:56;;;;;;;0.32;0.30;;;13.50;99.90;;;;;;5096974;28;20101;-64
2022/02/17 01:45:22;;;;;;;0.53;0.20;;;13.50;99.90;;;;;;5097434;28;20469;-64
2022/02/17 01:47:48;;;;;;;1.75;0.30;;;13.50;99.90;;;;;;5096839;28;20448;-64
2022/02/17 01:50:15;;;;;;;0.30;0.25;;;13.50;99.90;;;;;;5096777;28;20027;-64
2022/02/17 01:52:41;;;;;;;0.68;0.20;;;13.40;99.90;;;;;;5096766;28;20032;-65
2022/02/17 01:55:07;;;;;;;0.13;0.10;;;13.40;99.90;;;;;;5096749;28;20028;-65
2022/02/17 01:57:34;;;;;;;0.20;0.20;;;13.40;99.90;;;;;;5096549;28;20031;-64
2022/02/17 02:00:00;;;;;;;;;;;13.40;99.90;;;;;;5096932;28;20119;-65
2022/02/17 02:02:26;;;;;;;0.20;0.20;;;13.30;99.90;;;;;;5096417;28;20338;-65
2022/02/17 02:04:52;;;;;;;0.20;0.20;;;13.40;99.90;;;;;;5095130;28;20023;-64
2022/02/17 02:07:18;;;;;;;0.27;0.20;;;13.40;99.90;;;;;;5096383;28;20437;-64
2022/02/17 02:09:43;;;;;;;0.23;0.23;;;13.40;99.90;;;;;;5096133;28;20266;-65
2022/02/17 02:12:11;;;;;;;0.43;0.20;;;13.40;99.90;;;;;;5094887;28;20801;-64
2022/02/17 02:14:48;;;;;;;0.88;0.20;;;13.40;99.90;;;;;;5096634;28;20028;-65
2022/02/17 02:17:14;;;;;;;0.50;0.25;;;13.40;99.90;;;;;;5094983;28;20107;-64
2022/02/17 02:19:40;;;;;;;0.10;0.10;;;13.40;99.90;;;;;;5095931;28;20496;-64
2022/02/17 02:22:05;;;;;;;0.20;0.20;;;13.40;99.90;;;;;;5095981;28;20342;-64
2022/02/17 02:24:32;;;;;;;0.20;0.20;;;13.40;99.90;;;;;;5096294;28;20028;-65
2022/02/17 02:26:58;;;;;;;0.20;0.20;;;13.40;99.90;;;;;;5095919;28;20024;-64
2022/02/17 02:29:23;;;;;;;0.20;0.20;;;13.40;99.90;;;;;;5095761;28;20043;-64
2022/02/17 02:31:49;;;;;;;0.20;0.20;;;13.50;99.90;;;;;;5095976;28;20273;-64
2022/02/17 02:34:15;;;;;;;0.20;0.20;;;13.40;99.90;;;;;;5095817;28;20050;-64
2022/02/17 02:36:40;;;;;;;0.27;0.20;;;13.50;99.90;;;;;;5096250;28;20491;-64
2022/02/17 02:39:06;;;;;;;0.20;0.20;;;13.50;99.90;;;;;;5095521;28;20353;-64
2022/02/17 02:41:32;;;;;;;0.63;0.30;;;13.40;99.90;;;;;;5095982;28;20266;-64
2022/02/17 02:43:58;;;;;;;0.20;0.10;;;13.40;99.90;;;;;;5095657;28;20028;-64
2022/02/17 02:46:24;;;;;;;0.20;0.20;;;13.50;99.90;;;;;;5095653;28;20031;-64
2022/02/17 02:48:49;;;;;;;0.20;0.20;;;13.50;99.90;;;;;;5096417;28;20024;-64
2022/02/17 02:51:15;;;;;;;0.30;0.30;;;13.50;99.90;;;;;;5097272;28;20020;-64
2022/02/17 02:53:41;;;;;;;0.30;0.20;;;13.50;99.90;;;;;;5095709;28;20137;-64
2022/02/17 02:56:07;;;;;;;0.20;0.20;;;13.50;99.90;;;;;;5096210;28;20481;-65
2022/02/17 02:58:32;;;;;;;0.20;0.20;;;13.50;99.90;;;;;;5095735;28;20107;-65
2022/02/17 03:00:58;;;;;;;0.20;0.20;;;13.50;99.90;;;;;;5095455;28;20036;-64
2022/02/17 03:03:24;;;;;;;0.20;0.20;;;13.60;99.90;;;;;;5095236;28;20024;-64
2022/02/17 03:05:50;;;;;;;0.45;0.30;;;13.60;99.90;;;;;;5095315;28;20103;-64
2022/02/17 03:08:16;;;;;;;0.43;0.20;;;13.60;99.90;;;;;;5095252;28;20028;-65
2022/02/17 03:10:44;;;;;;;1.20;0.30;;;13.70;99.90;;;;;;5095474;28;20302;-64
2022/02/17 03:13:10;;;;;;;0.20;0.20;;;13.70;99.90;;;;;;5095321;28;20044;-64
2022/02/17 03:15:36;;;;;;;0.10;0.10;;;13.70;99.90;;;;;;5095033;28;20078;-64
2022/02/17 03:18:01;;;;;;;0.20;0.20;;;13.70;99.90;;;;;;5094928;28;20047;-64
2022/02/17 03:20:27;;;;;;;0.20;0.20;;;13.70;99.90;;;;;;5094998;28;20392;-65
2022/02/17 03:22:53;;;;;;;0.10;0.10;;;13.70;99.90;;;;;;5095399;28;20093;-65
2022/02/17 03:25:18;;;;;;;0.20;0.20;;;13.70;99.90;;;;;;5095392;28;20051;-65
2022/02/17 03:27:44;;;;;;;0.45;0.25;;;13.70;99.90;;;;;;5095107;28;20032;-64
2022/02/17 03:30:11;;;;;;;0.20;0.20;;;13.70;99.90;;;;;;5094788;28;20028;-65
2022/02/17 03:32:38;;;;;;;0.30;0.30;;;13.70;99.90;;;;;;5094828;28;20477;-64
2022/02/17 03:35:06;;;;;;;0.20;0.20;;;13.70;99.90;;;;;;5093511;28;20074;-65
2022/02/17 03:37:32;;;;;;;0.20;0.20;;;13.70;99.90;;;;;;5094681;28;20028;-65
2022/02/17 03:39:57;;;;;;;0.20;0.20;;;13.70;99.90;;;;;;5093199;28;20248;-64
2022/02/17 03:42:23;;;;;;;0.20;0.20;;;13.70;99.90;;;;;;5094478;28;20111;-65
2022/02/17 03:44:49;;;;;;;0.22;0.17;;;13.70;99.90;;;;;;5094427;28;20258;-65
2022/02/17 03:47:15;;;;;;;0.10;0.10;;;13.70;99.90;;;;;;5094815;28;20111;-65
2022/02/17 03:49:40;;;;;;;0.60;0.30;;;13.60;99.90;;;;;;5093105;28;20266;-66
2022/02/17 03:52:06;;;;;;;0.70;0.50;;;13.50;99.90;;;;;;5093178;28;20045;-65
2022/02/17 03:54:32;;;;;;;1.98;0.70;;;13.50;99.90;;;;;;5094345;28;20481;-65
2022/02/17 03:56:58;;;;;;;0.90;0.30;;;13.40;99.90;;;;;;5092864;28;20055;-65
2022/02/17 03:59:24;;;;;;;0.30;0.23;;;13.40;99.90;;;;;;5094422;28;20039;-66
2022/02/17 04:01:50;;;;;;;0.40;0.30;;;13.40;99.90;;;;;;5093001;28;20035;-66
2022/02/17 04:04:16;;;;;;;0.80;0.40;;;13.50;99.90;;;;;;5094115;28;20027;-65
2022/02/17 04:06:42;;;;;;;0.68;0.63;;;13.40;99.90;;;;;;5094164;28;20028;-64
2022/02/17 04:09:08;;;;;;;0.98;0.52;;;13.40;99.90;;;;;;5093992;28;20378;-65
2022/02/17 04:11:34;;;;;;;0.32;0.22;;;13.40;99.90;;;;;;5094654;28;20023;-65
2022/02/17 04:14:01;;;;;;;0.35;0.20;;;13.40;99.90;;;;;;5092980;28;20028;-65
2022/02/17 04:16:26;;;;;;;0.40;0.30;;;13.30;99.90;;;;;;5092501;28;20035;-65
2022/02/17 04:18:52;;;;;;;1.60;0.40;;;13.40;99.90;;;;;;5093931;28;20016;-65
2022/02/17 04:21:19;;;;;;;0.47;0.47;;;13.40;99.90;;;;;;5093845;28;20512;-65
2022/02/17 04:23:45;;;;;;;0.80;0.50;;;13.40;99.90;;;;;;5093604;28;20023;-65
2022/02/17 04:26:12;;;;;;;0.20;0.20;;;13.40;99.90;;;;;;5093768;28;20012;-65
2022/02/17 04:28:38;;;;;;;0.30;0.22;;;13.40;99.90;;;;;;5092342;28;20374;-65
2022/02/17 04:31:05;;;;;;;0.55;0.30;;;13.40;99.90;;;;;;5093677;28;20047;-64
2022/02/17 04:33:32;;;;;;;0.20;0.15;;;13.40;99.90;;;;;;5092851;28;20032;-65
2022/02/17 04:35:57;;;;;;;1.27;0.38;;;13.40;99.90;;;;;;5094329;28;20469;-65
2022/02/17 04:38:23;;;;;;;0.30;0.30;;;13.40;99.90;;;;;;5092907;28;20040;-65
2022/02/17 04:43:33;;;;;;;0.40;0.32;;;13.30;99.90;;;;;;5094635;28;20034;-64
2022/02/17 04:45:59;;;;;;;0.20;0.20;;;13.30;99.90;;;;;;5093688;28;20095;-64
2022/02/17 04:48:24;;;;;;;0.50;0.30;;;13.30;99.90;;;;;;5093924;28;20452;-65
2022/02/17 04:50:50;;;;;;;0.20;0.20;;;13.30;99.90;;;;;;5093562;28;20417;-64
2022/02/17 04:53:17;;;;;;;1.40;0.30;;;13.20;99.90;;;;;;5094696;28;20055;-64
2022/02/17 04:55:43;;;;;;;1.38;0.30;;;13.20;99.90;;;;;;5093751;28;20131;-65
2022/02/17 04:58:09;;;;;;;1.20;0.40;;;13.10;99.90;;;;;;5092141;28;20485;-65
2022/02/17 05:00:35;;;;;;;0.32;0.30;;;13.00;99.90;;;;;;5093344;28;20081;-65
2022/02/17 05:03:00;;;;;;;1.60;0.45;;;12.90;99.90;;;;;;5093116;28;20024;-65
2022/02/17 05:05:26;;;;;;;2.63;1.07;;;12.90;99.90;;;;;;5093297;28;20024;-64
2022/02/17 05:07:52;;;;;;;3.80;0.80;;;12.90;99.90;;;;;;5092066;28;20020;-64
2022/02/17 05:10:18;;;;;;;3.77;0.73;;;12.90;99.90;;;;;;5095208;28;20109;-65
2022/02/17 05:12:48;;;;;;;4.05;0.90;;;12.90;99.90;;;;;;5097977;28;20484;-65
2022/02/17 05:15:13;;;;;;;3.38;0.95;;;12.80;99.90;;;;;;5098576;28;20035;-65
2022/02/17 05:17:39;;;;;;;5.23;1.27;;;12.80;99.90;;;;;;5098231;28;20473;-65
2022/02/17 05:20:06;;;;;;;5.40;1.00;;;12.80;99.90;;;;;;5097627;28;20262;-65
2022/02/17 05:22:32;;;;;;;4.82;0.85;;;12.80;99.90;;;;;;5097575;28;20035;-66
2022/02/17 05:24:58;;;;;;;;;;;12.70;99.90;;;;;;5096656;28;20081;-66
2022/02/17 05:27:24;;;;;;;4.00;1.13;;;12.70;99.90;;;;;;5095958;28;19904;-66
2022/02/17 05:29:50;;;;;;;10.25;1.25;;;12.60;99.90;;;;;;5097072;28;20023;-65
2022/02/17 05:32:15;;;;;;;5.43;1.30;;;12.50;99.90;;;;;;5095908;28;20113;-65
2022/02/17 05:34:41;;;;;;;6.70;1.63;;;12.50;99.90;;;;;;5095658;28;20036;-66
2022/02/17 05:37:07;;;;;;;4.60;1.20;;;12.50;99.90;;;;;;5096890;28;20739;-65
2022/02/17 05:39:35;;;;;;;5.78;1.50;;;12.50;99.90;;;;;;5096883;28;20468;-65
2022/02/17 05:42:00;;;;;;;6.25;1.23;;;12.40;99.90;;;;;;5097038;28;20465;-65
2022/02/17 05:44:26;;;;;;;7.60;1.70;;;12.40;99.90;;;;;;5096958;28;20027;-64
2022/02/17 05:46:51;;;;;;;7.57;1.50;;;12.40;99.90;;;;;;5097132;28;20465;-63
2022/02/17 05:49:17;;;;;;;6.00;1.60;;;12.40;99.90;;;;;;5095443;28;20037;-63
2022/02/17 05:51:43;;;;;;;7.30;1.38;;;12.40;99.90;;;;;;5096375;28;20020;-63
2022/02/17 05:54:08;;;;;;;11.07;2.63;;;12.40;99.90;;;;;;5096714;28;20102;-64
2022/02/17 05:56:34;;;;;;;9.37;1.60;;;12.40;99.90;;;;;;5097065;28;20102;-65
2022/02/17 05:59:00;;;;;;;6.97;1.52;;;12.40;99.90;;;;;;5096449;28;20046;-64
2022/02/17 06:01:25;;;;;;;6.27;1.40;;;12.30;99.90;;;;;;5096432;28;20021;-64
2022/02/17 06:03:51;;;;;;;5.70;0.93;;;12.30;99.90;;;;;;5096665;28;20024;-65
2022/02/17 06:06:16;;;;;;;5.67;1.40;;;12.30;99.90;;;;;;5096571;28;20385;-62
2022/02/17 06:08:42;;;;;;;8.47;1.97;;;12.30;99.90;;;;;;5096221;28;20223;-65
2022/02/17 06:11:07;;;;;;;7.40;1.60;;;12.20;99.90;;;;;;5096312;28;20024;-64
2022/02/17 06:13:33;;;;;;;12.25;1.70;;;12.20;99.90;;;;;;5094961;28;20035;-66
2022/02/17 06:15:59;;;;;;;5.68;1.48;;;12.20;99.90;;;;;;5096266;28;20421;-67
2022/02/17 06:18:24;;;;;;;9.97;1.87;;;12.10;99.90;;;;;;5096036;28;20361;-65
2022/02/17 06:20:50;;;;;;;6.23;1.50;;;12.10;99.90;;;;;;5094891;28;20137;-64
2022/02/17 06:23:16;;;;;;;6.30;1.40;;;12.00;99.90;;;;;;5094481;28;20465;-65
2022/02/17 06:25:41;;;;;;;6.55;1.75;;;12.00;99.90;;;;;;5094810;28;20028;-64
2022/02/17 06:28:07;;;;;;;10.70;2.17;;;12.00;99.90;;;;;;5094671;28;20119;-66
2022/02/17 06:30:33;;;;;;;9.23;2.08;;;12.00;99.90;;;;;;5095866;28;20024;-65
2022/02/17 06:32:59;;;;;;;6.35;1.33;;;12.00;99.90;;;;;;5095848;28;20160;-64
2022/02/17 06:35:30;;;;;;;8.63;1.43;;;11.90;99.90;;;;;;5095914;28;20036;-64
2022/02/17 06:37:56;;;;;;;12.13;4.20;;;11.90;99.90;;;;;;5094390;28;20028;-65
2022/02/17 06:40:22;;;;;;;7.07;1.88;;;12.00;99.90;;;;;;5095643;28;20054;-66
2022/02/17 06:42:48;;;;;;;;;;;11.90;99.90;;;;;;5095880;28;20073;-65
2022/02/17 06:45:14;;;;;;;9.68;1.40;;;11.90;99.90;;;;;;5095239;28;19904;-66
2022/02/17 06:47:40;;;;;;;9.18;1.95;;;11.90;99.90;;;;;;5095807;28;20043;-67
2022/02/17 06:50:07;;;;;;;13.35;2.38;;;11.90;99.90;;;;;;5094017;28;20024;-64
2022/02/17 06:52:33;;;;;;;8.23;2.15;;;11.90;99.90;;;;;;5095447;28;20028;-65
2022/02/17 06:54:59;;;;;;;13.60;3.20;;;11.90;99.90;;;;;;5096008;28;20065;-64
2022/02/17 06:57:25;;;;;;;9.00;1.80;;;11.90;99.90;;;;;;5095738;28;20422;-65
2022/02/17 06:59:52;;;;;;;7.45;1.73;;;11.90;99.90;;;;;;5097544;28;20111;-65
2022/02/17 07:02:23;;;;;;;11.90;2.78;;;11.90;99.90;;;;;;5096346;28;20038;-66
2022/02/17 07:04:48;;;;;;;10.90;2.13;;;11.90;99.90;;;;;;5096539;28;20066;-66
2022/02/17 07:07:14;;;;;;;8.50;2.10;;;11.90;99.90;;;;;;5097134;28;20020;-66
2022/02/17 07:09:39;;;;;;;10.27;2.40;;;11.90;99.90;;;;;;5095302;28;20627;-65
2022/02/17 07:12:05;;;;;;;9.53;1.60;;;11.90;99.90;;;;;;5095333;28;20046;-66
2022/02/17 07:14:31;;;;;;;12.73;1.67;;;11.90;99.90;;;;;;5095219;28;20060;-65
2022/02/17 07:16:59;;;;;;;8.93;1.93;;;11.90;99.90;;;;;;5096097;28;20028;-67
2022/02/17 07:19:25;;;;;;;13.57;1.92;;;11.90;99.90;;;;;;5095698;28;20107;-65
2022/02/17 07:21:52;;;;;;;9.95;1.85;;;11.90;99.90;;;;;;5095259;28;20393;-65
2022/02/17 07:24:18;;;;;;;9.68;2.38;;;11.90;99.90;;;;;;5093400;28;20073;-66
2022/02/17 07:26:44;;;;;;;11.73;2.05;;;12.00;99.90;;;;;;5093425;28;20032;-64
2022/02/17 07:29:10;;;;;;;14.40;2.30;;;11.90;99.90;;;;;;5094416;28;20020;-67
2022/02/17 07:31:36;;;;;;;9.05;1.90;;;12.00;99.90;;;;;;5094474;28;20103;-67
2022/02/17 07:34:03;;;;;;;6.43;1.50;;;12.00;99.90;;;;;;5093389;28;20019;-65
2022/02/17 07:36:29;;;;;;;13.10;2.20;;;12.00;99.90;;;;;;5093953;28;20358;-66
2022/02/17 07:38:55;;;;;;;12.02;2.95;;;12.00;99.90;;;;;;5094370;28;20023;-65
2022/02/17 07:41:20;;;;;;;10.70;1.90;;;11.90;99.90;;;;;;5092811;28;20020;-65
2022/02/17 07:43:46;;;;;;;12.70;2.42;;;12.00;99.90;;;;;;5094161;28;20103;-65
2022/02/17 07:46:12;;;;;;;16.75;2.92;;;11.90;99.90;;;;;;5093874;28;20036;-64
2022/02/17 07:48:38;;;;;;;7.57;1.65;;;11.90;99.90;;;;;;5094091;28;20020;-66
2022/02/17 07:51:04;;;;;;;8.30;2.00;;;11.90;99.90;;;;;;5094198;28;20020;-66
2022/02/17 07:53:31;;;;;;;13.07;2.38;;;11.90;99.90;;;;;;5094347;28;20377;-65
2022/02/17 07:55:57;;;;;;;12.82;2.92;;;11.90;99.90;;;;;;5093902;28;20153;-65
2022/02/17 07:58:23;;;;;;;9.93;2.70;;;11.90;99.90;;;;;;5093747;28;20032;-65
2022/02/17 08:00:49;;;;;;;12.88;2.00;;;11.90;99.90;;;;;;5093708;28;20508;-65
2022/02/17 08:03:16;;;;;;;12.48;2.13;;;11.90;99.90;;;;;;5093638;28;20028;-65
2022/02/17 08:05:42;;;;;;;12.95;2.10;;;11.90;99.90;;;;;;5093672;28;20024;-66
2022/02/17 08:08:09;;;;;;;15.35;2.35;;;12.00;99.90;;;;;;5092418;28;20480;-65
2022/02/17 08:10:35;;;;;;;15.98;2.63;;;11.90;99.90;;;;;;5093884;28;20102;-65
2022/02/17 08:13:01;;;;;;;9.60;1.92;;;11.90;99.90;;;;;;5094091;28;20488;-65
2022/02/17 08:15:27;;;;;;;14.32;2.92;;;12.00;99.90;;;;;;5094250;28;20028;-65
2022/02/17 08:17:52;;;;;;;18.23;2.80;;;12.00;99.90;;;;;;5093541;28;20428;-65
2022/02/17 08:20:18;;;;;;;11.37;2.40;;;12.10;99.90;;;;;;5093530;28;20410;-64
2022/02/17 08:22:53;;;;;;;14.03;2.43;;;12.20;99.90;;;;;;5094001;28;20024;-65
2022/02/17 08:25:20;;;;;;;15.38;4.28;;;12.20;99.90;;;;;;5094219;28;20016;-66
2022/02/17 08:27:50;;;;;;;13.43;2.72;;;12.30;99.90;;;;;;5093412;28;20065;-63
2022/02/17 08:30:16;;;;;;;17.67;2.95;;;12.30;99.90;;;;;;5093362;28;20023;-62
2022/02/17 08:32:42;;;;;;;16.40;2.63;;;12.40;99.90;;;;;;5093741;28;20461;-63
2022/02/17 08:35:10;;;;;;;14.70;2.83;;;12.50;99.90;;;;;;5093474;28;20035;-63
2022/02/17 08:37:36;;;;;;;19.08;3.10;;;12.60;99.90;;;;;;5093137;28;20293;-63
2022/02/17 08:40:03;;;;;;;16.00;3.47;;;12.60;99.90;;;;;;5093174;28;20354;-63
2022/02/17 08:42:29;;;;;;;17.50;3.20;;;12.70;99.90;;;;;;5091695;28;20067;-63
2022/02/17 08:44:55;;;;;;;16.70;3.07;;;12.80;99.90;;;;;;5093266;28;20021;-64
2022/02/17 08:47:21;;;;;;;15.23;3.40;;;12.80;99.40;;;;;;5093222;28;20020;-64
2022/02/17 08:49:47;;;;;;;15.30;3.15;;;12.80;99.30;;;;;;5092845;28;20024;-63
2022/02/17 08:52:13;;;;;;;18.52;2.75;;;12.70;98.80;;;;;;5091632;28;20519;-62
2022/02/17 08:54:39;;;;;;;18.80;3.17;;;12.70;98.60;;;;;;5092931;28;20489;-62
2022/02/17 08:57:05;;;;;;;17.50;3.27;;;12.70;98.60;;;;;;5092921;28;20016;-61
2022/02/17 08:59:30;;;;;;;19.50;3.72;;;12.60;98.50;;;;;;5091413;28;20345;-63
2022/02/17 09:01:57;;;;;;;17.38;3.08;;;12.60;98.80;;;;;;5093039;28;20024;-63
2022/02/17 09:04:23;;;;;;;17.10;3.25;;;12.50;99.00;;;;;;5091546;28;20065;-63
2022/02/17 09:06:49;;;;;;;18.88;4.07;;;12.40;98.90;;;;;;5091703;28;20039;-64
2022/02/17 09:09:15;;;;;;;20.98;3.45;;;12.40;99.20;;;;;;5092848;28;20071;-62
2022/02/17 09:11:41;;;;;;;21.27;4.57;;;12.40;99.50;;;;;;5092953;28;20384;-61
2022/02/17 09:14:07;;;;;;;20.95;3.38;;;12.30;99.30;;;;;;5093186;28;20405;-63
2022/02/17 09:16:36;;;;;;;25.27;4.57;;;12.30;99.30;;;;;;5095052;28;20024;-62
2022/02/17 09:19:04;;;;;;;22.23;3.67;;;12.30;99.30;;;;;;5092879;28;20020;-62
2022/02/17 09:21:29;;;;;;;20.80;4.05;;;12.20;99.50;;;;;;5092930;28;20024;-62
2022/02/17 09:23:56;;;;;;;18.10;3.50;;;12.20;99.50;;;;;;5092975;28;20028;-63
2022/02/17 09:26:22;;;;;;;23.52;4.03;;;12.20;99.90;;;;;;5092774;28;20426;-63
2022/02/17 09:28:48;;;;;;;22.70;3.60;;;12.20;99.90;;;;;;5092776;28;20024;-62
2022/02/17 09:31:18;;;;;;;23.45;4.75;;;12.20;99.90;;;;;;5092983;28;20104;-62
2022/02/17 09:33:46;;;;;;;30.67;4.93;;;12.20;99.90;;;;;;5092918;28;20362;-63
2022/02/17 09:36:12;;;;;;;25.35;4.20;;;12.20;99.90;;;;;;5092907;28;20423;-63
2022/02/17 09:38:37;;;;;;;26.80;4.55;;;12.20;99.90;;;;;;5092589;28;20020;-62
2022/02/17 09:41:08;;;;;;;24.65;3.80;;;12.20;99.70;;;;;;5093189;28;20111;-63
2022/02/17 09:43:35;;;;;;;22.17;5.35;;;12.20;99.70;;;;;;5092834;28;20046;-63
2022/02/17 09:46:02;;;;;;;18.73;4.05;;;12.30;99.60;;;;;;5093236;28;20031;-63
2022/02/17 09:48:28;;;;;;;19.42;4.07;;;12.20;99.60;;;;;;5092292;28;20027;-63
2022/02/17 09:50:54;;;;;;;27.73;4.68;;;12.20;99.50;;;;;;5092858;28;20032;-63
2022/02/17 09:53:20;;;;;;;24.27;4.55;;;12.20;99.90;;;;;;5092610;28;20020;-61
2022/02/17 09:55:46;;;;;;;25.88;4.07;;;12.20;99.90;;;;;;5092934;28;20028;-62
2022/02/17 09:58:14;;;;;;;18.67;3.28;;;12.20;99.90;;;;;;5096533;28;20110;-62
2022/02/17 10:00:39;;;;;;;21.85;4.05;;;12.20;99.90;;;;;;5094852;28;20035;-63
2022/02/17 10:03:26;;;;;;;22.30;3.78;;;12.20;99.90;;;;;;5096077;28;20017;-62
2022/02/17 10:06:04;;;;;;;19.30;4.00;;;12.20;99.90;;;;;;5096422;28;20055;-62
2022/02/17 10:08:30;;;;;;;22.38;3.88;;;12.10;99.90;;;;;;5094960;28;20031;-62
2022/02/17 10:10:55;;;;;;;19.98;4.40;;;12.10;99.90;;;;;;5097391;28;20024;-61
2022/02/17 10:13:21;;;;;;;22.13;3.73;;;12.10;99.90;;;;;;5096086;28;20028;-62
2022/02/17 10:15:52;;;;;;;21.05;3.28;;;12.10;99.90;;;;;;5095894;28;20460;-62
2022/02/17 10:18:21;;;;;;;18.73;4.60;;;12.00;99.90;;;;;;5096062;28;20024;-63
2022/02/17 10:20:59;;;;;;;20.60;4.78;;;12.10;99.90;;;;;;5095724;28;20104;-62
2022/02/17 10:23:30;;;;;;;20.33;3.47;;;12.10;99.90;;;;;;5096182;28;20027;-63
2022/02/17 10:25:59;;;;;;;22.40;5.35;;;12.20;99.90;;;;;;5094712;28;20020;-66
2022/02/17 10:28:26;;;;;;;17.15;4.15;;;12.40;99.90;;;;;;5094394;28;20024;-66
2022/02/17 10:30:52;;;;;;;19.88;4.32;;;12.60;99.90;;;;;;5095929;28;20032;-66
2022/02/17 10:33:18;;;;;;;25.40;3.72;;;12.60;99.80;;;;;;5095907;28;20028;-66
2022/02/17 10:35:58;;;;;;;22.45;3.63;;;12.70;99.90;;;;;;5095868;28;20393;-66
2022/02/17 10:38:23;;;;;;;17.55;3.22;;;12.80;99.30;;;;;;5095885;28;20031;-65
2022/02/17 10:40:54;;;;;;;14.33;3.23;;;12.70;98.70;;;;;;5094407;28;20028;-66
2022/02/17 10:43:22;;;;;;;18.17;3.35;;;12.70;98.40;;;;;;5095336;28;20099;-66
2022/02/17 10:45:49;;;;;;;17.67;3.20;;;12.70;98.30;;;;;;5095481;28;20048;-66
2022/02/17 10:48:29;;;;;;;10.95;3.00;;;12.60;97.90;;;;;;5095237;28;20468;-65
2022/02/17 10:51:16;;;;;;;11.57;2.65;;;12.60;98.30;;;;;;5095446;28;20099;-66
2022/02/17 10:53:46;;;;;;;19.20;3.70;;;12.70;98.60;;;;;;5095405;28;20035;-66
2022/02/17 10:56:21;;;;;;;16.15;2.90;;;12.70;99.00;;;;;;5095481;28;20032;-65
2022/02/17 10:58:48;;;;;;;17.42;3.60;;;12.60;99.40;;;;;;5095318;28;20028;-65
2022/02/17 11:01:16;;;;;;;23.40;3.75;;;12.60;99.70;;;;;;5093939;28;20034;-65
2022/02/17 11:03:43;;;;;;;18.02;3.30;;;12.60;99.90;;;;;;5095227;28;20385;-66
2022/02/17 11:06:09;;;;;;;;;;;12.60;99.90;;;;;;5093877;28;20020;-67
2022/02/17 11:08:36;;;;;;;18.77;3.88;;;12.70;99.80;;;;;;5093489;28;19912;-66
2022/02/17 11:11:03;;;;;;;19.75;3.72;;;12.70;99.70;;;;;;5094811;28;20096;-65
2022/02/17 11:13:31;;;;;;;18.00;3.58;;;12.70;99.80;;;;;;5094744;28;20108;-66
2022/02/17 11:15:59;;;;;;;23.17;3.85;;;12.70;99.90;;;;;;5094871;28;20031;-66
2022/02/17 11:18:26;;;;;;;20.75;3.67;;;12.60;99.60;;;;;;5095195;28;20028;-66
2022/02/17 11:20:53;;;;;;;24.73;3.53;;;12.60;99.60;;;;;;5094723;28;20028;-66
2022/02/17 11:23:33;;;;;;;20.30;3.50;;;12.70;98.60;;;;;;5094804;28;20020;-66
2022/02/17 11:26:00;;;;;;;22.60;4.15;;;12.70;98.00;;;;;;5094430;28;20028;-66
2022/02/17 11:28:34;;;;;;;22.55;4.70;;;12.70;98.10;;;;;;5094623;28;20035;-66
2022/02/17 11:31:03;;;;;;;21.25;4.10;;;12.70;98.30;;;;;;5094347;28;20020;-66
2022/02/17 11:33:37;;;;;;;18.95;3.55;;;12.80;97.80;;;;;;5094815;28;20032;-66
2022/02/17 11:36:19;;;;;;;18.20;4.15;;;12.80;97.10;;;;;;5094639;28;20027;-66
2022/02/17 11:38:54;;;;;;;21.35;3.42;;;12.70;97.20;;;;;;5094628;28;20028;-66
2022/02/17 11:41:22;;;;;;;28.65;3.80;;;12.70;97.70;;;;;;5094246;28;20024;-66
2022/02/17 11:43:51;;;;;;;19.88;3.75;;;12.60;97.10;;;;;;5094123;28;20028;-66
2022/02/17 11:46:44;;;;;;;19.75;4.15;;;12.60;97.40;;;;;;5094078;28;20024;-66
2022/02/17 11:49:30;;;;;;;16.70;3.00;;;12.60;97.00;;;;;;5092836;28;20031;-66
2022/02/17 11:52:11;;;;;;;19.40;3.25;;;12.50;96.80;;;;;;5094298;28;20032;-65
2022/02/17 11:54:37;;;;;;;18.15;3.10;;;12.50;97.00;;;;;;5095586;28;20481;-65
2022/02/17 11:57:03;;;;;;;22.60;4.82;;;12.50;97.00;;;;;;5094437;28;20094;-64
2022/02/17 11:59:31;;;;;;;29.75;4.00;;;12.60;97.20;;;;;;5093987;28;20508;-65
2022/02/17 12:01:59;;;;;;;21.48;3.95;;;12.60;97.20;;;;;;5094184;28;20020;-66
2022/02/17 12:04:31;;;;;;;23.20;3.50;;;12.60;97.30;;;;;;5094135;28;20019;-66
2022/02/17 12:06:58;;;;;;;17.65;3.78;;;12.70;97.00;;;;;;5094105;28;20397;-65
2022/02/17 12:09:32;;;;;;;23.73;4.03;;;12.70;97.00;;;;;;5093966;28;20032;-65
2022/02/17 12:12:22;;;;;;;18.92;3.30;;;12.70;96.40;;;;;;5093870;28;20043;-66
2022/02/17 12:14:52;;;;;;;17.30;2.78;;;12.60;96.00;;;;;;5093516;28;20091;-65
2022/02/17 12:17:33;;;;;;;17.98;3.00;;;12.60;95.70;;;;;;5093839;28;20048;-63
2022/02/17 12:20:20;;;;;;;24.95;3.08;;;12.60;95.60;;;;;;5093751;28;20024;-65
2022/02/17 12:23:06;;;;;;;14.57;2.67;;;12.60;96.00;;;;;;5093983;28;20031;-65
2022/02/17 12:25:45;;;;;;;15.82;3.85;;;12.60;96.30;;;;;;5093713;28;20020;-65
2022/02/17 12:28:15;;;;;;;19.08;3.88;;;12.60;97.40;;;;;;5092015;28;20028;-67
2022/02/17 12:30:52;;;;;;;17.48;2.95;;;12.50;97.10;;;;;;5093836;28;20408;-67
2022/02/17 12:33:20;;;;;;;16.83;3.63;;;12.50;97.80;;;;;;5093879;28;20130;-66
2022/02/17 12:35:57;;;;;;;21.75;4.18;;;12.50;98.00;;;;;;5093540;28;20116;-66
2022/02/17 12:38:24;;;;;;;;;;;12.60;98.10;;;;;;5093597;28;20022;-65
2022/02/17 12:40:51;;;;;;;18.30;3.53;;;12.60;97.90;;;;;;5093234;28;19904;-66
2022/02/17 12:43:27;;;;;;;17.30;3.83;;;12.60;98.00;;;;;;5093173;28;20024;-66
2022/02/17 12:45:54;;;;;;;23.30;4.47;;;12.50;98.50;;;;;;5093228;28;20045;-66
2022/02/17 12:48:20;;;;;;;20.63;3.85;;;12.40;98.70;;;;;;5093245;28;20026;-67